CheckWX is a tool to help pilots better visualize weather data.  It is not intended as a substitute for an official pre-flight weather briefing.

06:34:22 UTC

KSCD METAR
Merkel Field Sylacauga Municipal Airport
Sylacauga, Alabama, USA
Current

19 mins ago

KSCD 230615Z AUTO 00000KT 10SM OVC110 12/12 A3015 RMK AO2 T01150115
Observed
Apr-23 @ 06:15 UTC
Visibility
10 SM
Flight Rules
VFR
Cloud Levels
  • Overcast at 11,000' AGL
Temperature
12°C / 54°F
Dewpoint
12°C / 54°F
Humidity
100%
Altimeter
30.15" Hg
Pressure
1021.02 hPa
Previous

39 mins ago

KSCD 230555Z AUTO 00000KT 10SM BKN110 12/12 A3015 RMK AO2 T01150115 10217 20110 402660056
Observed
Apr-23 @ 05:55 UTC
Visibility
10 SM
Flight Rules
VFR
Cloud Levels
  • Broken at 11,000' AGL
Temperature
12°C / 54°F
Dewpoint
12°C / 54°F
Humidity
100%
Altimeter
30.15" Hg
Pressure
1021.02 hPa
Previous

59 mins ago

KSCD 230535Z AUTO 00000KT 10SM BKN110 12/12 A3015 RMK AO2 T01180118
Observed
Apr-23 @ 05:35 UTC
Visibility
10 SM
Flight Rules
VFR
Cloud Levels
  • Broken at 11,000' AGL
Temperature
12°C / 54°F
Dewpoint
12°C / 54°F
Humidity
100%
Altimeter
30.15" Hg
Pressure
1021.02 hPa